Time;durP1;ratioP1;P1;durP2;ratioP2;P2;SDS_P1;SDS_P2;PMS_P1;PMS_P2;Temp;Humidity;BMP_temperature;BMP_pressure;BME280_temperature;BME280_humidity;BME280_pressure;Samples;Min_cycle;Max_cycle;Signal;HPM_P1;HPM_P2
2021/01/30 00:01:53;;;;;;;60.25;22.85;;;-2.10;99.90;;;;;;4434132;28;657958;-63
2021/01/30 00:04:40;;;;;;;63.03;23.93;;;-2.00;99.90;;;;;;4415359;28;657661;-63
2021/01/30 00:07:27;;;;;;;65.90;24.57;;;-2.10;99.90;;;;;;4445744;28;658070;-63
2021/01/30 00:10:15;;;;;;;68.93;24.53;;;-2.10;99.90;;;;;;4441902;28;656506;-61
2021/01/30 00:13:02;;;;;;;63.00;23.30;;;-2.10;99.90;;;;;;4440815;28;657678;-63
2021/01/30 00:15:49;;;;;;;67.90;25.13;;;-2.20;99.90;;;;;;4432353;28;656560;-62
2021/01/30 00:18:36;;;;;;;57.53;19.07;;;-2.20;99.90;;;;;;4451989;28;657607;-63
2021/01/30 00:21:23;;;;;;;58.80;20.10;;;-2.10;99.90;;;;;;4433703;28;656560;-63
2021/01/30 00:24:10;;;;;;;67.60;22.30;;;-2.00;99.90;;;;;;4412527;28;656842;-63
2021/01/30 00:27:02;;;;;;;66.73;23.93;;;-1.90;99.90;;;;;;4434197;28;657152;-63
2021/01/30 00:29:49;;;;;;;78.70;24.20;;;-2.00;99.90;;;;;;4398637;28;656479;-60
2021/01/30 00:32:36;;;;;;;81.37;25.93;;;-2.10;99.90;;;;;;4441286;28;657575;-63
2021/01/30 00:35:26;;;;;;;84.37;25.87;;;-1.90;99.90;;;;;;4450096;28;657293;-60
2021/01/30 00:38:12;;;;;;;78.53;27.83;;;-2.00;99.90;;;;;;4449201;28;657898;-63
2021/01/30 00:41:00;;;;;;;73.63;26.60;;;-2.10;99.90;;;;;;4423013;28;656334;-61
2021/01/30 00:43:47;;;;;;;89.97;31.90;;;-2.10;99.90;;;;;;4443977;28;657422;-63
2021/01/30 00:46:34;;;;;;;101.17;34.93;;;-2.00;99.90;;;;;;4422200;28;656367;-62
2021/01/30 00:49:21;;;;;;;98.37;35.13;;;-2.10;99.90;;;;;;4432481;28;659295;-63
2021/01/30 00:52:09;;;;;;;97.63;34.67;;;-2.10;99.90;;;;;;4433962;28;656329;-63
2021/01/30 00:54:56;;;;;;;96.13;33.27;;;-2.20;99.90;;;;;;4417654;28;657698;-63
2021/01/30 00:57:43;;;;;;;93.33;32.23;;;-2.00;99.90;;;;;;4450476;28;657384;-63
2021/01/30 01:00:31;;;;;;;86.77;30.93;;;-1.90;99.90;;;;;;4409263;28;656407;-63
2021/01/30 01:03:18;;;;;;;70.47;25.77;;;-1.80;99.90;;;;;;4436908;28;657013;-63
2021/01/30 01:06:05;;;;;;;70.47;27.30;;;-1.70;99.90;;;;;;4429637;28;657548;-62
2021/01/30 01:08:52;;;;;;;70.17;27.83;;;-1.80;99.90;;;;;;4444161;28;656773;-63
2021/01/30 01:11:40;;;;;;;66.73;26.17;;;-1.60;99.90;;;;;;4437583;28;657381;-61
2021/01/30 01:14:27;;;;;;;72.50;27.30;;;-1.70;99.90;;;;;;4435362;28;657466;-63
2021/01/30 01:17:15;;;;;;;81.07;27.60;;;-1.90;99.90;;;;;;4420436;28;657481;-60
2021/01/30 01:20:02;;;;;;;71.05;26.63;;;-2.00;99.90;;;;;;4450284;28;658250;-63
2021/01/30 01:22:50;;;;;;;73.70;26.80;;;-2.00;99.90;;;;;;4435690;28;656812;-61
2021/01/30 01:25:37;;;;;;;73.53;27.63;;;-2.10;99.90;;;;;;4436959;28;658790;-63
2021/01/30 01:28:24;;;;;;;75.40;28.30;;;-2.10;99.90;;;;;;4428657;28;657498;-62
2021/01/30 01:31:11;;;;;;;72.37;27.00;;;-2.00;99.90;;;;;;4436740;28;657336;-63
2021/01/30 01:34:00;;;;;;;83.47;27.77;;;-2.10;99.90;;;;;;4440160;28;656517;-60
2021/01/30 01:36:53;;;;;;;74.20;29.63;;;-2.00;99.90;;;;;;4472232;28;657491;-63
2021/01/30 01:39:40;;;;;;;77.07;27.90;;;-2.10;99.90;;;;;;4426959;28;657331;-63
2021/01/30 01:42:27;;;;;;;82.30;29.80;;;-2.00;99.90;;;;;;4455766;28;657252;-63
2021/01/30 01:45:15;;;;;;;81.38;29.70;;;-2.00;99.90;;;;;;4434992;28;656447;-61
2021/01/30 01:48:04;;;;;;;84.87;29.50;;;-2.00;99.90;;;;;;4453970;28;658243;-63
2021/01/30 01:50:52;;;;;;;85.87;31.03;;;-2.10;99.90;;;;;;4412966;28;658534;-63
2021/01/30 01:53:41;;;;;;;82.28;30.02;;;-2.10;99.90;;;;;;4438848;28;656656;-60
2021/01/30 01:56:28;;;;;;;79.10;29.97;;;-2.20;99.90;;;;;;4445302;28;656682;-63
2021/01/30 01:59:16;;;;;;;84.30;31.17;;;-2.20;99.90;;;;;;4426662;28;658092;-63
2021/01/30 02:02:03;;;;;;;100.73;33.40;;;-2.20;99.90;;;;;;4450050;28;656999;-64
2021/01/30 02:04:53;;;;;;;109.83;36.47;;;-2.20;99.90;;;;;;4420768;28;657334;-63
2021/01/30 02:07:41;;;;;;;108.83;36.63;;;-2.20;99.90;;;;;;4430369;28;657848;-62
2021/01/30 02:10:29;;;;;;;100.53;33.10;;;-2.20;99.90;;;;;;4451951;28;657221;-63
2021/01/30 02:13:17;;;;;;;116.60;38.07;;;-2.20;99.90;;;;;;4415768;28;659227;-63
2021/01/30 02:16:09;;;;;;;94.20;32.57;;;-2.10;99.90;;;;;;4423245;28;658519;-62
2021/01/30 02:19:04;;;;;;;93.47;32.57;;;-2.10;99.90;;;;;;4429662;28;656974;-63
2021/01/30 02:22:20;;;;;;;103.33;34.63;;;-2.20;99.90;;;;;;4395097;28;657074;-63
2021/01/30 02:25:44;;;;;;;103.33;34.83;;;-2.20;99.90;;;;;;4412481;28;658544;-63
2021/01/30 02:28:33;;;;;;;93.77;33.90;;;-2.20;99.90;;;;;;4311100;28;659126;-63
2021/01/30 02:31:41;;;;;;;117.50;37.83;;;-2.10;99.90;;;;;;4332781;28;656436;-63
2021/01/30 02:34:46;;;;;;;106.83;35.40;;;-2.20;99.90;;;;;;4329082;28;658454;-63
2021/01/30 02:37:36;;;;;;;103.77;36.50;;;-2.20;99.90;;;;;;4345683;28;657936;-64
2021/01/30 02:40:24;;;;;;;104.07;35.10;;;-2.20;99.90;;;;;;4352015;28;657918;-63
2021/01/30 02:43:12;;;;;;;735.93;64.17;;;-2.20;99.90;;;;;;4344342;28;658634;-63
2021/01/30 02:46:01;;;;;;;107.23;35.73;;;-2.20;99.90;;;;;;4360302;28;657605;-60
2021/01/30 02:48:51;;;;;;;101.77;36.83;;;-2.10;99.90;;;;;;4357271;28;658446;-62
2021/01/30 02:51:40;;;;;;;106.97;38.10;;;-2.10;99.90;;;;;;4363070;28;658310;-63
2021/01/30 02:54:28;;;;;;;109.80;36.60;;;-2.10;99.90;;;;;;4339210;28;659075;-63
2021/01/30 02:57:15;;;;;;;111.87;39.97;;;-2.10;99.90;;;;;;4336377;28;657556;-63
2021/01/30 03:00:04;;;;;;;105.17;36.23;;;-2.10;99.90;;;;;;4350809;28;658612;-63
2021/01/30 03:02:51;;;;;;;106.73;37.17;;;-2.10;99.90;;;;;;4340359;28;658703;-63
2021/01/30 03:05:38;;;;;;;99.53;36.27;;;-2.10;99.90;;;;;;4396168;28;658949;-62
2021/01/30 03:08:26;;;;;;;104.28;37.70;;;-2.10;99.90;;;;;;4434318;28;656491;-63
2021/01/30 03:11:15;;;;;;;103.50;38.00;;;-2.10;99.90;;;;;;4440032;28;657129;-63
2021/01/30 03:14:05;;;;;;;103.15;36.33;;;-2.10;99.90;;;;;;4420659;28;658586;-63
2021/01/30 03:16:52;;;;;;;102.53;37.55;;;-2.10;99.90;;;;;;4417219;28;659275;-63
2021/01/30 03:19:39;;;;;;;111.63;38.97;;;-2.10;99.90;;;;;;4438815;28;657526;-59
2021/01/30 03:22:27;;;;;;;107.55;36.60;;;-2.10;99.90;;;;;;4454244;28;658256;-63
2021/01/30 03:25:17;;;;;;;105.38;35.55;;;-2.10;99.90;;;;;;4428651;28;658347;-60
2021/01/30 03:28:05;;;;;;;103.20;36.33;;;-2.10;99.90;;;;;;4442107;28;658293;-60
2021/01/30 03:30:52;;;;;;;102.43;36.17;;;-2.10;99.90;;;;;;4445469;28;658354;-63
2021/01/30 03:33:39;;;;;;;111.23;38.53;;;-2.00;99.90;;;;;;4428257;28;658508;-63
2021/01/30 03:36:26;;;;;;;111.77;38.50;;;-2.00;99.90;;;;;;4443455;28;658431;-63
2021/01/30 03:39:14;;;;;;;109.67;39.37;;;-1.90;99.90;;;;;;4437595;28;657996;-63
2021/01/30 03:42:01;;;;;;;108.83;38.30;;;-1.90;99.90;;;;;;4419436;28;658495;-63
2021/01/30 03:44:50;;;;;;;112.40;39.73;;;-1.90;99.90;;;;;;4447968;28;657478;-63
2021/01/30 03:47:37;;;;;;;114.20;39.60;;;-1.70;99.90;;;;;;4414133;28;659206;-63
2021/01/30 03:50:24;;;;;;;98.60;34.95;;;-1.80;99.90;;;;;;4425334;28;659181;-58
2021/01/30 03:53:11;;;;;;;108.57;36.72;;;-1.80;99.90;;;;;;4447976;28;656419;-63
2021/01/30 03:55:58;;;;;;;90.80;34.80;;;-1.70;99.90;;;;;;4451147;28;657967;-63
2021/01/30 03:58:46;;;;;;;116.93;41.80;;;-1.70;99.90;;;;;;4424731;28;656693;-63
2021/01/30 04:01:34;;;;;;;126.53;41.70;;;-1.70;99.90;;;;;;4442754;28;657167;-60
2021/01/30 04:04:21;;;;;;;124.33;43.20;;;-1.70;99.90;;;;;;4426745;28;658275;-63
2021/01/30 04:07:08;;;;;;;143.70;48.10;;;-1.70;99.90;;;;;;4450527;28;657890;-63
2021/01/30 04:09:55;;;;;;;142.83;48.97;;;-1.70;99.90;;;;;;4431393;28;657942;-62
2021/01/30 04:12:42;;;;;;;132.20;46.97;;;-1.70;99.90;;;;;;4441415;28;658743;-63
2021/01/30 04:15:31;;;;;;;144.13;49.30;;;-1.70;99.90;;;;;;4428281;28;657789;-60
2021/01/30 04:18:19;;;;;;;141.93;46.20;;;-1.70;99.90;;;;;;4449740;28;658637;-63
2021/01/30 04:21:06;;;;;;;129.30;45.63;;;-1.70;99.90;;;;;;4426927;28;659146;-63
2021/01/30 04:23:53;;;;;;;118.43;42.47;;;-1.60;99.90;;;;;;4449634;28;658311;-63
2021/01/30 04:26:40;;;;;;;125.00;42.57;;;-1.70;99.90;;;;;;4431775;28;657567;-63
2021/01/30 04:29:27;;;;;;;125.43;43.00;;;-1.70;99.90;;;;;;4451974;28;658901;-63
2021/01/30 04:32:14;;;;;;;187.97;45.37;;;-1.70;99.90;;;;;;4441886;28;657438;-59
2021/01/30 04:35:02;;;;;;;118.25;43.35;;;-1.80;99.90;;;;;;4448558;28;657298;-63
2021/01/30 04:37:49;;;;;;;143.97;48.47;;;-1.70;99.90;;;;;;4431043;28;659040;-61
2021/01/30 04:40:38;;;;;;;147.57;50.37;;;-1.70;99.90;;;;;;4445602;28;657125;-62
2021/01/30 04:43:26;;;;;;;148.57;52.07;;;-1.70;99.90;;;;;;4431014;28;657528;-63
2021/01/30 04:46:15;;;;;;;167.80;52.60;;;-1.70;99.90;;;;;;4449276;28;657897;-63
2021/01/30 04:49:03;;;;;;;160.80;52.53;;;-1.70;99.90;;;;;;4419330;28;658699;-63
2021/01/30 04:51:55;;;;;;;143.43;48.83;;;-1.70;99.90;;;;;;4430032;28;657587;-64
2021/01/30 04:54:55;;;;;;;145.90;47.90;;;-1.60;99.90;;;;;;4419902;28;658613;-63
2021/01/30 04:57:48;;;;;;;141.00;48.03;;;-1.60;99.90;;;;;;4426755;28;658770;-63
2021/01/30 05:01:04;;;;;;;148.77;50.03;;;-1.70;99.90;;;;;;4403954;28;658781;-63
2021/01/30 05:04:09;;;;;;;133.23;47.97;;;-1.70;99.90;;;;;;4395202;28;658288;-63
2021/01/30 05:07:05;;;;;;;131.17;44.27;;;-1.70;99.90;;;;;;4386404;28;658902;-63
2021/01/30 05:09:54;;;;;;;136.13;47.90;;;-1.70;99.90;;;;;;4424486;28;658650;-63
2021/01/30 05:12:44;;;;;;;129.37;45.83;;;-1.60;99.90;;;;;;4426953;28;658509;-63
2021/01/30 05:15:32;;;;;;;137.30;47.07;;;-1.70;99.90;;;;;;4426835;28;659474;-63
2021/01/30 05:18:21;;;;;;;156.37;51.70;;;-1.60;99.90;;;;;;4417606;28;657905;-60
2021/01/30 05:21:10;;;;;;;127.97;46.97;;;-1.60;99.90;;;;;;4434490;28;658905;-63
2021/01/30 05:23:58;;;;;;;139.25;46.10;;;-1.60;99.90;;;;;;4413274;28;658727;-63
2021/01/30 05:26:50;;;;;;;130.33;46.93;;;-1.50;99.90;;;;;;4416080;28;658203;-63
2021/01/30 05:29:40;;;;;;;134.53;45.87;;;-1.50;99.90;;;;;;4426702;28;658608;-63
2021/01/30 05:32:29;;;;;;;135.27;46.95;;;-1.50;99.90;;;;;;4416021;28;659478;-63
2021/01/30 05:35:18;;;;;;;134.67;46.63;;;-1.40;99.90;;;;;;4409459;28;659217;-63
2021/01/30 05:38:08;;;;;;;140.07;47.28;;;-1.40;99.90;;;;;;4416722;28;657565;-63
2021/01/30 05:40:58;;;;;;;137.90;49.37;;;-1.30;99.90;;;;;;4430523;28;657428;-63
2021/01/30 05:43:48;;;;;;;126.07;46.10;;;-1.30;99.90;;;;;;4417650;28;658246;-63
2021/01/30 05:46:35;;;;;;;129.63;41.97;;;-1.30;99.90;;;;;;4421439;28;657812;-63
2021/01/30 05:49:25;;;;;;;118.70;42.23;;;-1.30;99.90;;;;;;4433154;28;658290;-63
2021/01/30 05:52:15;;;;;;;119.53;42.63;;;-1.20;99.90;;;;;;4417630;28;659201;-63
2021/01/30 05:55:02;;;;;;;116.70;39.83;;;-1.20;99.90;;;;;;4425177;28;659789;-60
2021/01/30 05:57:50;;;;;;;118.43;42.15;;;-1.20;99.90;;;;;;4420440;28;657840;-62
2021/01/30 06:00:37;;;;;;;129.97;46.83;;;-1.10;99.90;;;;;;4449052;28;658923;-63
2021/01/30 06:03:25;;;;;;;117.60;44.23;;;-1.00;99.90;;;;;;4442247;28;658993;-61
2021/01/30 06:06:13;;;;;;;130.87;46.30;;;-1.00;99.90;;;;;;4449155;28;657907;-63
2021/01/30 06:09:02;;;;;;;134.77;45.37;;;-1.00;99.90;;;;;;4421315;28;657590;-63
2021/01/30 06:11:50;;;;;;;135.27;47.78;;;-0.90;99.90;;;;;;4432312;28;657913;-61
2021/01/30 06:14:38;;;;;;;137.17;47.30;;;-1.00;99.90;;;;;;4437653;28;658384;-64
2021/01/30 06:17:34;;;;;;;152.77;48.83;;;-1.10;99.90;;;;;;4424799;28;658541;-63
2021/01/30 06:20:22;;;;;;;159.00;52.67;;;-1.10;99.90;;;;;;4403985;28;658647;-63
2021/01/30 06:23:10;;;;;;;139.10;48.67;;;-1.10;99.90;;;;;;4433343;28;657375;-63
2021/01/30 06:26:18;;;;;;;137.60;47.87;;;-1.10;99.90;;;;;;4437338;28;658721;-64
2021/01/30 06:29:07;;;;;;;148.30;50.13;;;-1.00;99.90;;;;;;4407158;28;658730;-63
2021/01/30 06:31:55;;;;;;;153.07;52.03;;;-1.00;99.90;;;;;;4431154;28;657469;-62
2021/01/30 06:34:42;;;;;;;167.07;55.67;;;-1.00;99.90;;;;;;4465447;28;657756;-63
2021/01/30 06:37:37;;;;;;;157.97;50.80;;;-0.90;99.90;;;;;;4451313;28;657512;-61
2021/01/30 06:40:25;;;;;;;153.10;52.57;;;-0.80;99.90;;;;;;4415475;28;657445;-60
2021/01/30 06:43:15;;;;;;;157.07;54.83;;;-0.80;99.90;;;;;;4460042;28;658568;-63
2021/01/30 06:46:05;;;;;;;194.20;65.20;;;-0.70;99.90;;;;;;4428559;28;658946;-64
2021/01/30 06:48:58;;;;;;;154.53;56.73;;;-0.60;99.90;;;;;;4428996;28;658387;-64
2021/01/30 06:51:45;;;;;;;167.20;58.70;;;-0.50;99.90;;;;;;4404901;28;658507;-63
2021/01/30 06:54:33;;;;;;;207.23;75.37;;;-0.40;99.90;;;;;;4440208;28;659078;-63
2021/01/30 06:57:23;;;;;;;176.30;60.53;;;-0.30;99.90;;;;;;4435222;28;657596;-63
2021/01/30 07:00:23;;;;;;;198.40;69.33;;;-0.20;99.90;;;;;;4435668;28;657729;-63
2021/01/30 07:03:12;;;;;;;159.98;57.40;;;-0.20;99.90;;;;;;4424537;28;657479;-63
2021/01/30 07:06:08;;;;;;;129.73;48.43;;;-0.10;99.90;;;;;;4433140;28;659598;-63
2021/01/30 07:09:11;;;;;;;120.57;47.27;;;-0.10;99.90;;;;;;4404883;28;659155;-63
2021/01/30 07:12:04;;;;;;;124.10;47.73;;;0.00;99.90;;;;;;4429104;28;658694;-63
2021/01/30 07:15:04;;;;;;;142.70;52.30;;;0.00;99.90;;;;;;4407203;28;657133;-63
2021/01/30 07:18:14;;;;;;;154.67;54.03;;;0.00;99.90;;;;;;4406930;28;657826;-63
2021/01/30 07:21:20;;;;;;;139.87;50.47;;;0.10;99.90;;;;;;4403789;28;658569;-63
2021/01/30 07:24:21;;;;;;;126.17;48.80;;;0.20;99.90;;;;;;4429027;28;656924;-63
2021/01/30 07:27:11;;;;;;;118.83;46.13;;;0.30;99.90;;;;;;4422902;28;656800;-64
2021/01/30 07:30:01;;;;;;;117.77;45.77;;;0.30;99.90;;;;;;4426200;28;656709;-64
2021/01/30 07:32:50;;;;;;;121.38;46.67;;;0.30;99.90;;;;;;4421774;28;656381;-64
2021/01/30 07:35:40;;;;;;;128.27;46.37;;;0.40;99.90;;;;;;4429270;28;657113;-64
2021/01/30 07:38:31;;;;;;;130.40;48.30;;;0.50;99.90;;;;;;4430007;28;657726;-64
2021/01/30 07:41:22;;;;;;;136.97;47.47;;;0.50;99.90;;;;;;4429160;28;656803;-63
2021/01/30 07:44:13;;;;;;;131.20;45.00;;;0.50;99.90;;;;;;4410569;28;657408;-63
2021/01/30 07:47:15;;;;;;;139.67;48.07;;;0.50;99.90;;;;;;4433900;28;656624;-63
2021/01/30 07:50:03;;;;;;;127.00;48.50;;;0.50;99.90;;;;;;4432830;28;656630;-64
2021/01/30 07:53:11;;;;;;;149.97;51.57;;;0.50;99.90;;;;;;4433355;28;656612;-64
2021/01/30 07:56:23;;;;;;;129.80;49.40;;;0.60;99.90;;;;;;4421666;28;657354;-68
2021/01/30 07:59:30;;;;;;;129.57;47.93;;;0.70;99.90;;;;;;4404605;28;656678;-67
2021/01/30 08:02:36;;;;;;;121.17;47.67;;;0.70;99.90;;;;;;4409029;28;659560;-67
2021/01/30 08:05:31;;;;;;;107.73;41.70;;;0.70;99.90;;;;;;4425886;28;656701;-68
2021/01/30 08:08:23;;;;;;;118.17;45.97;;;0.90;99.90;;;;;;4423232;28;657529;-68
2021/01/30 08:11:17;;;;;;;97.87;39.20;;;1.00;99.90;;;;;;4405115;28;657864;-68
2021/01/30 08:14:24;;;;;;;67.87;29.47;;;1.20;99.90;;;;;;4408881;28;656134;-66
2021/01/30 08:17:20;;;;;;;76.17;27.60;;;1.40;99.90;;;;;;4394480;28;656727;-68
2021/01/30 08:20:10;;;;;;;72.43;28.80;;;1.70;99.90;;;;;;4434911;28;656073;-66
2021/01/30 08:22:59;;;;;;;47.10;18.13;;;2.00;99.90;;;;;;4429811;28;655779;-68
2021/01/30 08:25:49;;;;;;;70.87;27.70;;;2.00;99.90;;;;;;4424059;28;657047;-68
2021/01/30 08:28:39;;;;;;;68.82;28.08;;;1.90;99.90;;;;;;4433252;28;656863;-67
2021/01/30 08:31:34;;;;;;;67.07;25.60;;;2.10;99.90;;;;;;4429531;28;656536;-67
2021/01/30 08:34:29;;;;;;;61.70;26.10;;;2.10;99.90;;;;;;4422784;28;656006;-68
2021/01/30 08:37:36;;;;;;;46.23;21.10;;;2.10;99.90;;;;;;4405014;28;656436;-67
2021/01/30 08:40:51;;;;;;;57.87;24.23;;;2.40;99.90;;;;;;4428591;28;655536;-67
2021/01/30 08:43:40;;;;;;;59.07;23.53;;;2.40;99.90;;;;;;4429617;28;655717;-67
2021/01/30 08:46:30;;;;;;;57.37;21.23;;;2.50;99.90;;;;;;4429442;28;656369;-68
2021/01/30 08:49:22;;;;;;;26.63;11.83;;;2.60;99.90;;;;;;4420578;28;656079;-67
2021/01/30 08:52:24;;;;;;;46.90;20.80;;;2.70;99.90;;;;;;4409779;28;655668;-65
2021/01/30 08:55:35;;;;;;;19.53;9.13;;;2.80;99.90;;;;;;4421195;28;655552;-67
2021/01/30 08:58:51;;;;;;;10.00;5.60;;;2.90;99.90;;;;;;4429343;28;656234;-66
2021/01/30 09:01:46;;;;;;;24.67;8.03;;;3.00;99.90;;;;;;4421585;28;654396;-67
2021/01/30 09:04:53;;;;;;;26.00;12.90;;;3.10;99.90;;;;;;4422727;28;654417;-67
2021/01/30 09:07:45;;;;;;;21.03;10.10;;;3.10;99.90;;;;;;4431565;28;656379;-67
2021/01/30 09:10:37;;;;;;;23.37;12.10;;;3.20;99.90;;;;;;4429692;28;656610;-67
2021/01/30 09:13:25;;;;;;;22.07;9.50;;;3.20;99.90;;;;;;4412628;28;655868;-64
2021/01/30 09:16:13;;;;;;;20.97;10.73;;;3.20;99.90;;;;;;4451326;28;654926;-67
2021/01/30 09:19:00;;;;;;;20.00;9.90;;;3.30;99.90;;;;;;4431187;28;655408;-67
2021/01/30 09:21:53;;;;;;;18.07;8.57;;;3.30;99.90;;;;;;4455756;28;656085;-66
2021/01/30 09:24:57;;;;;;;23.47;11.80;;;3.20;99.90;;;;;;4401874;28;655437;-67
2021/01/30 09:27:48;;;;;;;24.40;11.30;;;3.10;99.90;;;;;;4413318;28;655162;-66
2021/01/30 09:30:39;;;;;;;4.33;2.57;;;3.10;99.90;;;;;;4422572;28;655510;-66
2021/01/30 09:33:29;;;;;;;17.63;9.40;;;3.40;99.90;;;;;;4434275;28;653947;-67
2021/01/30 09:36:17;;;;;;;14.40;7.93;;;3.50;99.90;;;;;;4424475;28;655118;-67
2021/01/30 09:39:04;;;;;;;14.97;7.90;;;3.50;99.90;;;;;;4435804;28;654869;-65
2021/01/30 09:41:52;;;;;;;19.90;9.80;;;3.50;99.90;;;;;;4452588;28;656255;-67
2021/01/30 09:44:39;;;;;;;15.40;5.90;;;3.30;99.90;;;;;;4448376;28;654594;-65
2021/01/30 09:47:26;;;;;;;19.07;6.47;;;3.30;99.90;;;;;;4459559;28;654797;-70
2021/01/30 09:50:17;;;;;;;19.37;8.67;;;3.30;99.90;;;;;;4453636;28;654219;-68
2021/01/30 09:53:07;;;;;;;15.80;7.47;;;3.20;99.90;;;;;;4419645;28;654722;-65
2021/01/30 09:56:07;;;;;;;18.53;8.47;;;3.30;99.90;;;;;;4436042;28;654643;-67
2021/01/30 09:58:56;;;;;;;16.80;6.07;;;3.30;99.90;;;;;;4413543;28;654453;-66
2021/01/30 10:01:44;;;;;;;15.18;6.43;;;3.20;99.90;;;;;;4455325;28;655316;-68
2021/01/30 10:04:31;;;;;;;12.30;5.63;;;3.30;99.90;;;;;;4432060;28;655169;-66
2021/01/30 10:07:26;;;;;;;16.00;7.07;;;3.30;99.90;;;;;;4454660;28;654213;-68
2021/01/30 10:10:31;;;;;;;19.47;7.70;;;3.10;99.90;;;;;;4431387;28;655091;-68
2021/01/30 10:13:18;;;;;;;11.80;5.10;;;3.00;99.90;;;;;;4431328;28;654851;-67
2021/01/30 10:16:09;;;;;;;14.85;6.05;;;3.00;99.90;;;;;;4435906;28;654378;-66
2021/01/30 10:18:58;;;;;;;15.23;6.57;;;2.80;99.90;;;;;;4425907;28;656086;-66
2021/01/30 10:21:45;;;;;;;12.90;5.43;;;2.70;99.90;;;;;;4433507;28;654788;-68
2021/01/30 10:24:33;;;;;;;20.40;9.13;;;2.50;99.90;;;;;;4454025;28;655240;-70
2021/01/30 10:27:21;;;;;;;17.90;9.20;;;2.30;99.90;;;;;;4432993;28;654451;-68
2021/01/30 10:30:09;;;;;;;24.60;11.30;;;2.30;99.90;;;;;;4450109;28;654266;-67
2021/01/30 10:32:57;;;;;;;26.30;10.87;;;2.30;99.90;;;;;;4425442;28;657049;-67
2021/01/30 10:35:47;;;;;;;30.70;13.93;;;2.30;99.90;;;;;;4425700;28;655443;-67
2021/01/30 10:38:34;;;;;;;31.33;13.43;;;2.00;99.90;;;;;;4427987;28;655697;-65
2021/01/30 10:41:23;;;;;;;26.90;11.90;;;1.90;99.90;;;;;;4457142;28;656406;-66
2021/01/30 10:44:10;;;;;;;41.23;15.70;;;1.90;99.90;;;;;;4428087;28;655996;-66
2021/01/30 10:46:59;;;;;;;61.13;24.23;;;1.70;99.90;;;;;;4444481;28;655955;-67
2021/01/30 10:49:46;;;;;;;63.07;24.90;;;1.50;99.90;;;;;;4419341;28;656430;-66
2021/01/30 10:52:33;;;;;;;54.40;21.77;;;1.40;99.90;;;;;;4449683;28;655473;-67
2021/01/30 10:55:31;;;;;;;43.40;16.03;;;1.40;99.90;;;;;;4431804;28;656600;-67
2021/01/30 10:58:20;;;;;;;78.20;30.63;;;1.30;99.90;;;;;;4423076;28;655638;-67
2021/01/30 11:01:08;;;;;;;75.20;28.87;;;1.20;99.90;;;;;;4425322;28;656458;-66
2021/01/30 11:03:56;;;;;;;61.50;23.67;;;1.10;99.90;;;;;;4430455;28;655437;-68
2021/01/30 11:06:44;;;;;;;67.07;27.07;;;1.00;99.90;;;;;;4450166;28;655873;-66
2021/01/30 11:09:32;;;;;;;74.93;29.40;;;1.00;99.90;;;;;;4431866;28;656697;-66
2021/01/30 11:12:24;;;;;;;86.77;32.80;;;0.90;99.90;;;;;;4432451;28;655728;-66
2021/01/30 11:15:18;;;;;;;78.30;29.20;;;0.60;99.90;;;;;;4428005;28;657045;-65
2021/01/30 11:18:22;;;;;;;84.73;33.60;;;0.50;99.90;;;;;;4405103;28;655946;-65
2021/01/30 11:21:12;;;;;;;67.55;23.70;;;0.40;99.90;;;;;;4432562;28;655951;-64
2021/01/30 11:24:01;;;;;;;71.97;28.70;;;0.00;99.90;;;;;;4442039;28;655798;-65
2021/01/30 11:26:48;;;;;;;46.87;18.37;;;-0.10;99.90;;;;;;4450098;28;656048;-65
2021/01/30 11:29:39;;;;;;;72.83;28.20;;;-0.40;99.90;;;;;;4429995;28;656810;-65
2021/01/30 11:32:27;;;;;;;57.17;23.47;;;-0.40;99.90;;;;;;4420539;28;658047;-65
2021/01/30 11:35:15;;;;;;;73.17;26.87;;;-0.60;99.90;;;;;;4439443;28;656824;-64
2021/01/30 11:38:04;;;;;;;41.45;15.13;;;-0.80;99.90;;;;;;4436537;28;657549;-64
2021/01/30 11:40:52;;;;;;;48.97;18.80;;;-0.80;99.90;;;;;;4425114;28;656793;-65
2021/01/30 11:43:39;;;;;;;62.10;24.90;;;-0.90;99.90;;;;;;4422376;28;656373;-65
2021/01/30 11:46:27;;;;;;;53.10;21.00;;;-1.00;99.90;;;;;;4447682;28;657474;-65
2021/01/30 11:49:15;;;;;;;47.00;15.23;;;-1.10;99.90;;;;;;4439265;28;659266;-65
2021/01/30 11:52:02;;;;;;;39.77;13.77;;;-1.10;99.90;;;;;;4448837;28;657745;-65
2021/01/30 11:54:49;;;;;;;49.57;18.83;;;-1.20;99.90;;;;;;4430365;28;656758;-65
2021/01/30 11:57:36;;;;;;;33.40;13.47;;;-1.40;99.90;;;;;;4453215;28;657464;-64
2021/01/30 12:00:24;;;;;;;18.03;7.63;;;-1.40;99.90;;;;;;4434008;28;657381;-65
2021/01/30 12:03:15;;;;;;;45.73;17.93;;;-1.50;99.90;;;;;;4427895;28;657050;-65
2021/01/30 12:06:04;;;;;;;31.87;14.53;;;-1.60;99.90;;;;;;4423071;28;657202;-65
2021/01/30 12:08:51;;;;;;;53.80;20.03;;;-1.50;99.90;;;;;;4426450;28;657713;-65
2021/01/30 12:11:38;;;;;;;40.93;15.63;;;-1.60;99.90;;;;;;4447676;28;656424;-66
2021/01/30 12:14:25;;;;;;;40.73;14.93;;;-1.60;99.90;;;;;;4430199;28;656812;-65
2021/01/30 12:17:13;;;;;;;22.57;9.73;;;-1.50;99.90;;;;;;4449195;28;656942;-65
2021/01/30 12:20:00;;;;;;;29.40;12.53;;;-1.50;99.90;;;;;;4427519;28;655396;-65
2021/01/30 12:22:49;;;;;;;34.90;12.03;;;-1.30;99.90;;;;;;4449273;28;657770;-66
2021/01/30 12:25:36;;;;;;;26.97;12.03;;;-1.10;99.90;;;;;;4429537;28;657653;-65
2021/01/30 12:28:25;;;;;;;29.10;8.83;;;-1.20;99.90;;;;;;4433525;28;657552;-66
2021/01/30 12:31:12;;;;;;;16.20;7.67;;;-1.20;99.90;;;;;;4427633;28;656047;-65
2021/01/30 12:34:00;;;;;;;27.55;11.38;;;-1.20;99.90;;;;;;4430812;28;655502;-65
2021/01/30 12:36:47;;;;;;;26.43;10.83;;;-1.30;99.90;;;;;;4443135;28;657527;-65
2021/01/30 12:39:35;;;;;;;33.53;12.73;;;-1.30;99.90;;;;;;4438524;28;657206;-65
2021/01/30 12:42:22;;;;;;;39.73;13.97;;;-1.40;99.90;;;;;;4449604;28;657151;-65
2021/01/30 12:45:10;;;;;;;33.13;12.33;;;-1.50;99.90;;;;;;4429016;28;656990;-65
2021/01/30 12:47:57;;;;;;;31.43;12.40;;;-1.50;99.90;;;;;;4449629;28;657192;-65
2021/01/30 12:50:45;;;;;;;33.03;11.93;;;-1.70;99.90;;;;;;4425217;28;657627;-65
2021/01/30 12:53:32;;;;;;;32.67;13.47;;;-1.70;99.90;;;;;;4449254;28;657015;-65
2021/01/30 12:56:20;;;;;;;30.30;12.47;;;-1.70;99.90;;;;;;4437408;28;657557;-64
2021/01/30 12:59:07;;;;;;;40.80;13.98;;;-1.60;99.90;;;;;;4446855;28;656956;-65
2021/01/30 13:01:54;;;;;;;40.53;13.97;;;-1.60;99.90;;;;;;4428998;28;657139;-65
2021/01/30 13:04:41;;;;;;;37.90;14.63;;;-1.50;99.90;;;;;;4452806;28;658024;-65
2021/01/30 13:07:28;;;;;;;39.67;13.37;;;-1.50;99.90;;;;;;4447207;28;656499;-64
2021/01/30 13:10:18;;;;;;;38.57;13.17;;;-1.40;99.90;;;;;;4422064;28;657015;-64
2021/01/30 13:13:06;;;;;;;41.73;15.33;;;-1.40;99.90;;;;;;4425786;28;656482;-65
2021/01/30 13:15:53;;;;;;;31.17;10.47;;;-1.50;99.90;;;;;;4436180;28;656752;-65
2021/01/30 13:18:40;;;;;;;37.10;13.77;;;-1.50;99.90;;;;;;4433243;28;657152;-65
2021/01/30 13:21:27;;;;;;;35.77;13.30;;;-1.60;99.90;;;;;;4452199;28;657435;-68
2021/01/30 13:24:15;;;;;;;33.63;13.50;;;-1.70;99.90;;;;;;4433693;28;656535;-64
2021/01/30 13:27:04;;;;;;;38.93;13.50;;;-1.80;99.90;;;;;;4451538;28;657352;-64
2021/01/30 13:29:52;;;;;;;33.57;12.97;;;-1.90;99.90;;;;;;4432204;28;657279;-65
2021/01/30 13:32:39;;;;;;;26.27;9.67;;;-1.90;99.90;;;;;;4432925;28;656752;-64
2021/01/30 13:35:27;;;;;;;33.87;10.57;;;-2.00;99.90;;;;;;4465569;28;656723;-65
2021/01/30 13:38:14;;;;;;;18.90;7.10;;;-1.90;99.90;;;;;;4426380;28;656859;-65
2021/01/30 13:41:01;;;;;;;34.97;13.53;;;-1.70;99.90;;;;;;4451822;28;656671;-65
2021/01/30 13:43:48;;;;;;;35.17;13.27;;;-1.70;99.90;;;;;;4451451;28;656352;-65
2021/01/30 13:46:36;;;;;;;35.23;12.27;;;-1.70;99.90;;;;;;4428893;28;656645;-65
2021/01/30 13:49:23;;;;;;;35.40;13.13;;;-1.80;99.90;;;;;;4450044;28;656599;-65
2021/01/30 13:52:10;;;;;;;26.77;10.87;;;-1.90;99.90;;;;;;4432040;28;656342;-64
2021/01/30 13:54:58;;;;;;;40.60;15.30;;;-1.90;99.90;;;;;;4450215;28;657642;-65
2021/01/30 13:57:45;;;;;;;33.20;12.87;;;-2.00;99.90;;;;;;4429915;28;656621;-65
2021/01/30 14:00:32;;;;;;;21.57;8.67;;;-2.00;99.90;;;;;;4458164;28;657885;-65
2021/01/30 14:03:20;;;;;;;40.95;11.85;;;-1.80;99.90;;;;;;4445235;28;655869;-64
2021/01/30 14:06:07;;;;;;;43.53;13.50;;;-1.80;99.90;;;;;;4437796;28;657453;-65
2021/01/30 14:08:54;;;;;;;32.97;11.87;;;-1.90;99.90;;;;;;4431993;28;656707;-65
2021/01/30 14:11:42;;;;;;;42.00;16.03;;;-1.90;99.90;;;;;;4461941;28;657219;-65
2021/01/30 14:14:29;;;;;;;41.27;15.33;;;-1.90;99.90;;;;;;4435694;28;656586;-66